Aviation Digital Data Service (ADDS)

Output produced by TAFs form (2256 UTC 16 January 2018)
found at http://www.aviationweather.gov/adds/tafs/
 
KAGS 162253Z 19004KT 10SM CLR 11/00 A3033 RMK AO2 SLP270 T01060000 $
KAGS 162132Z 1622/1718 VRB03KT P6SM SCT250 
     FM170300 VRB03KT P6SM BKN100 
     FM171000 VRB04KT P6SM VCSH BKN030 
     FM171200 28005KT 5SM -RASN OVC025 
     FM171700 31008KT P6SM OVC025